createdAt,value
2019-05-03T00:02:13.793Z,66.73
2019-05-03T00:04:43.926Z,66.47
2019-05-03T00:07:12.431Z,66.53
2019-05-03T00:09:42.645Z,66.41
2019-05-03T00:12:12.643Z,66.09
2019-05-03T00:14:42.890Z,66.61
2019-05-03T00:17:11.780Z,67.54
2019-05-03T00:19:42.212Z,67.43
2019-05-03T00:22:12.421Z,66.96
2019-05-03T00:24:42.679Z,67.20
2019-05-03T00:27:12.469Z,66.36
2019-05-03T00:29:41.838Z,66.06
2019-05-03T00:32:12.309Z,65.83
2019-05-03T00:34:42.303Z,67.09
2019-05-03T00:37:22.083Z,66.06
2019-05-03T00:39:58.006Z,64.22
2019-05-03T00:42:26.488Z,64.02
2019-05-03T00:44:55.194Z,63.77
2019-05-03T00:47:23.987Z,63.78
2019-05-03T00:49:52.421Z,63.19
2019-05-03T00:52:22.399Z,61.09
2019-05-03T00:54:52.880Z,59.99
2019-05-03T00:57:22.722Z,59.38
2019-05-03T00:59:52.859Z,59.89
2019-05-03T01:02:22.304Z,58.00
2019-05-03T01:04:51.781Z,57.29
2019-05-03T01:07:22.307Z,58.29
2019-05-03T01:09:51.808Z,58.29
2019-05-03T01:12:21.961Z,58.05
2019-05-03T01:14:52.159Z,57.05
2019-05-03T01:17:22.432Z,57.42
2019-05-03T01:19:52.154Z,57.57
2019-05-03T01:22:22.585Z,58.07
2019-05-03T01:24:51.880Z,57.71
2019-05-03T01:27:22.005Z,57.06
2019-05-03T01:29:51.945Z,57.35
2019-05-03T01:32:22.271Z,56.87
2019-05-03T01:34:52.386Z,56.58
2019-05-03T01:37:22.688Z,55.86
2019-05-03T01:39:52.594Z,54.52
2019-05-03T01:42:22.688Z,54.01
2019-05-03T01:44:52.289Z,54.69
2019-05-03T01:47:22.434Z,53.96
2019-05-03T01:49:52.494Z,53.97
2019-05-03T01:52:22.520Z,53.87
2019-05-03T01:54:52.174Z,53.65
2019-05-03T01:57:22.069Z,53.57
2019-05-03T01:59:52.091Z,54.07
2019-05-03T02:02:23.022Z,54.47
2019-05-03T02:05:08.519Z,53.44
2019-05-03T02:07:37.167Z,53.62
2019-05-03T02:10:07.781Z,53.91
2019-05-03T02:12:36.239Z,54.20
2019-05-03T02:15:07.044Z,54.44
2019-05-03T02:17:35.533Z,54.88
2019-05-03T02:20:05.645Z,54.75
2019-05-03T02:22:34.132Z,55.33
2019-05-03T02:25:02.534Z,55.27
2019-05-03T02:27:32.566Z,55.50
2019-05-03T02:30:03.026Z,55.85
2019-05-03T02:32:33.235Z,55.25
2019-05-03T02:35:02.813Z,55.67
2019-05-03T02:37:32.995Z,56.32
2019-05-03T02:40:04.304Z,56.65
2019-05-03T02:42:32.115Z,57.18
2019-05-03T02:45:01.086Z,56.85
2019-05-03T02:47:40.297Z,56.98
2019-05-03T02:50:10.415Z,56.85
2019-05-03T02:52:38.863Z,57.06
2019-05-03T02:55:08.329Z,57.45
2019-05-03T02:57:36.839Z,57.43
2019-05-03T03:00:07.860Z,57.36
2019-05-03T03:02:36.767Z,57.52
2019-05-03T03:05:05.959Z,57.48
2019-05-03T03:07:37.605Z,57.10
2019-05-03T03:10:07.864Z,55.54
2019-05-03T03:12:37.546Z,55.74
2019-05-03T03:15:06.422Z,54.67
2019-05-03T03:17:36.376Z,54.38
2019-05-03T03:20:07.304Z,55.12
2019-05-03T03:22:38.870Z,55.17
2019-05-03T03:25:09.001Z,55.19
2019-05-03T03:27:40.216Z,55.05
2019-05-03T03:30:29.882Z,55.32
2019-05-03T03:32:59.718Z,55.15
2019-05-03T03:35:31.485Z,55.13
2019-05-03T03:38:00.569Z,55.53
2019-05-03T03:40:30.723Z,54.99
2019-05-03T03:43:00.195Z,55.84
2019-05-03T03:45:28.720Z,56.22
2019-05-03T03:47:57.761Z,55.47
2019-05-03T03:50:26.986Z,55.96
2019-05-03T03:52:57.006Z,55.73
2019-05-03T03:55:26.588Z,56.17
2019-05-03T03:57:55.805Z,56.04
2019-05-03T04:00:25.882Z,56.34
2019-05-03T04:02:55.282Z,56.43
2019-05-03T04:05:25.404Z,56.63
2019-05-03T04:07:56.048Z,56.78
2019-05-03T04:10:26.118Z,57.40
2019-05-03T04:12:55.919Z,57.38
2019-05-03T04:15:26.757Z,57.68
2019-05-03T04:17:56.950Z,58.13
2019-05-03T04:20:27.511Z,57.74
2019-05-03T04:22:56.396Z,58.15
2019-05-03T04:25:26.231Z,58.42
2019-05-03T04:27:56.052Z,58.14
2019-05-03T04:30:25.651Z,58.81
2019-05-03T04:32:56.457Z,59.29
2019-05-03T04:35:26.640Z,58.93
2019-05-03T04:37:56.077Z,59.11
2019-05-03T04:40:25.957Z,59.58
2019-05-03T04:42:55.648Z,59.43
2019-05-03T04:45:25.624Z,60.00
2019-05-03T04:47:56.052Z,60.10
2019-05-03T04:50:25.504Z,59.97
2019-05-03T04:52:56.755Z,60.21
2019-05-03T04:55:26.721Z,60.30
2019-05-03T04:57:56.051Z,59.83
2019-05-03T05:00:25.659Z,60.77
2019-05-03T05:02:55.123Z,61.43
2019-05-03T05:05:26.052Z,61.26
2019-05-03T05:07:55.770Z,60.90
2019-05-03T05:10:25.997Z,60.33
2019-05-03T05:12:55.128Z,60.73
2019-05-03T05:15:26.243Z,60.88
2019-05-03T05:17:56.353Z,61.07
2019-05-03T05:20:29.210Z,61.04
2019-05-03T05:22:57.676Z,61.01
2019-05-03T05:25:30.368Z,60.99
2019-05-03T05:28:04.749Z,61.80
2019-05-03T05:30:35.367Z,61.71
2019-05-03T05:33:05.387Z,61.57
2019-05-03T05:35:35.231Z,61.42
2019-05-03T05:38:04.678Z,61.59
2019-05-03T05:40:34.913Z,61.50
2019-05-03T05:43:04.895Z,61.78
2019-05-03T05:45:34.835Z,61.38
2019-05-03T05:48:15.366Z,60.34
2019-05-03T05:50:45.214Z,60.92
2019-05-03T05:53:15.250Z,59.70
2019-05-03T05:55:51.333Z,59.83
2019-05-03T05:58:30.881Z,60.37
2019-05-03T06:01:00.913Z,59.82
2019-05-03T06:03:29.251Z,60.40
2019-05-03T06:05:59.297Z,59.67
2019-05-03T06:08:29.304Z,59.47
2019-05-03T06:11:16.919Z,58.97
2019-05-03T06:13:46.928Z,57.62
2019-05-03T06:16:29.269Z,56.30
2019-05-03T06:18:59.459Z,56.15
2019-05-03T06:21:35.789Z,55.05
2019-05-03T06:24:06.171Z,55.01
2019-05-03T06:26:34.910Z,53.15
2019-05-03T06:29:04.604Z,52.95
2019-05-03T06:31:51.391Z,52.21
2019-05-03T06:34:20.244Z,50.56
2019-05-03T06:36:51.551Z,48.45
2019-05-03T06:39:20.371Z,46.27
2019-05-03T06:41:48.874Z,45.25
2019-05-03T06:44:19.190Z,45.61
2019-05-03T06:46:51.410Z,46.98
2019-05-03T06:49:20.091Z,46.84
2019-05-03T06:51:49.864Z,47.62
2019-05-03T06:54:20.744Z,48.48
2019-05-03T06:56:48.666Z,47.95
2019-05-03T06:59:18.787Z,45.11
2019-05-03T07:02:00.724Z,43.65
2019-05-03T07:04:34.705Z,43.33
2019-05-03T07:07:05.292Z,44.15
2019-05-03T07:09:35.814Z,44.48
2019-05-03T07:12:04.662Z,43.80
2019-05-03T07:14:34.955Z,44.25
2019-05-03T07:17:05.383Z,45.10
2019-05-03T07:19:35.378Z,46.19
2019-05-03T07:22:05.002Z,46.18
2019-05-03T07:24:37.857Z,45.19
2019-05-03T07:27:05.460Z,43.88
2019-05-03T07:29:34.139Z,44.03
2019-05-03T07:32:02.514Z,44.05
2019-05-03T07:34:31.175Z,45.00
2019-05-03T07:36:59.964Z,44.62
2019-05-03T07:39:28.587Z,45.06
2019-05-03T07:41:56.982Z,46.21
2019-05-03T07:44:25.618Z,45.91
2019-05-03T07:46:55.478Z,44.01
2019-05-03T07:49:24.941Z,43.78
2019-05-03T07:51:55.365Z,43.80
2019-05-03T07:54:24.896Z,42.99
2019-05-03T07:56:55.008Z,43.61
2019-05-03T07:59:25.106Z,44.36
2019-05-03T08:01:55.331Z,44.45
2019-05-03T08:04:25.527Z,43.33
2019-05-03T08:06:54.918Z,41.43
2019-05-03T08:09:24.623Z,41.16
2019-05-03T08:11:54.726Z,40.57
2019-05-03T08:14:25.104Z,42.78
2019-05-03T08:16:54.829Z,41.06
2019-05-03T08:19:26.720Z,40.04
2019-05-03T08:21:56.474Z,39.27
2019-05-03T08:24:25.302Z,37.84
2019-05-03T08:26:55.780Z,36.85
2019-05-03T08:29:24.843Z,38.30
2019-05-03T08:31:58.535Z,37.93
2019-05-03T08:34:45.313Z,37.05
2019-05-03T08:37:15.485Z,36.57
2019-05-03T08:39:44.737Z,35.78
2019-05-03T08:42:17.816Z,35.66
2019-05-03T08:44:46.276Z,34.32
2019-05-03T08:47:15.512Z,33.02
2019-05-03T08:49:45.001Z,31.21
2019-05-03T08:52:15.553Z,29.28
2019-05-03T08:54:44.863Z,29.45
2019-05-03T08:57:14.969Z,31.50
2019-05-03T08:59:44.588Z,32.51
2019-05-03T09:02:14.357Z,32.76
2019-05-03T09:04:45.958Z,33.36
2019-05-03T09:07:14.752Z,35.70
2019-05-03T09:09:57.289Z,34.67
2019-05-03T09:12:25.775Z,33.47
2019-05-03T09:14:55.379Z,33.48
2019-05-03T09:17:24.649Z,33.11
2019-05-03T09:19:54.800Z,33.57
2019-05-03T09:22:25.421Z,31.42
2019-05-03T09:24:54.573Z,31.77
2019-05-03T09:27:24.758Z,30.95
2019-05-03T09:29:55.613Z,34.13
2019-05-03T09:32:25.500Z,35.95
2019-05-03T09:34:55.046Z,35.33
2019-05-03T09:37:25.035Z,35.51
2019-05-03T09:39:55.163Z,33.96
2019-05-03T09:42:24.828Z,34.30
2019-05-03T09:44:55.447Z,34.88
2019-05-03T09:47:25.214Z,33.34
2019-05-03T09:49:55.867Z,33.92
2019-05-03T09:52:24.995Z,34.36
2019-05-03T09:54:55.321Z,33.22
2019-05-03T09:57:24.758Z,30.95
2019-05-03T09:59:59.149Z,33.10
2019-05-03T10:02:24.613Z,34.98
2019-05-03T10:04:55.266Z,34.96
2019-05-03T10:07:25.801Z,32.69
2019-05-03T10:09:55.235Z,32.33
2019-05-03T10:12:25.652Z,31.50
2019-05-03T10:14:54.856Z,30.42
2019-05-03T10:17:25.286Z,29.73
2019-05-03T10:19:54.716Z,29.61
2019-05-03T10:22:26.316Z,30.62
2019-05-03T10:24:55.128Z,31.63
2019-05-03T10:27:25.176Z,33.23
2019-05-03T10:29:54.675Z,34.30
2019-05-03T10:32:25.633Z,34.73
2019-05-03T10:34:55.657Z,33.73
2019-05-03T10:37:31.736Z,33.26
2019-05-03T10:40:04.964Z,34.34
2019-05-03T10:42:32.244Z,35.65
2019-05-03T10:45:00.710Z,35.85
2019-05-03T10:47:29.123Z,35.65
2019-05-03T10:49:57.583Z,35.72
2019-05-03T10:52:27.945Z,36.90
2019-05-03T10:54:56.370Z,37.82
2019-05-03T10:57:26.347Z,37.93
2019-05-03T10:59:55.542Z,37.77
2019-05-03T11:02:28.411Z,37.32
2019-05-03T11:04:56.835Z,37.50
2019-05-03T11:07:25.781Z,36.78
2019-05-03T11:09:55.127Z,35.61
2019-05-03T11:12:25.398Z,35.70
2019-05-03T11:14:54.673Z,36.56
2019-05-03T11:17:23.161Z,37.02
2019-05-03T11:19:51.657Z,37.13
2019-05-03T11:22:20.475Z,37.52
2019-05-03T11:24:48.850Z,36.62
2019-05-03T11:27:18.951Z,35.33
2019-05-03T11:29:47.404Z,33.61
2019-05-03T11:32:17.449Z,30.69
2019-05-03T11:35:05.568Z,31.66
2019-05-03T11:37:50.689Z,31.06
2019-05-03T11:40:19.209Z,33.78
2019-05-03T11:42:48.472Z,34.26
2019-05-03T11:45:17.083Z,34.44
2019-05-03T11:47:45.909Z,35.50
2019-05-03T11:50:14.969Z,36.66
2019-05-03T11:52:46.834Z,36.51
2019-05-03T11:55:15.954Z,31.10
2019-05-03T11:57:44.958Z,26.83
2019-05-03T12:00:15.470Z,25.99
2019-05-03T12:02:45.849Z,23.36
2019-05-03T12:05:16.377Z,21.32
2019-05-03T12:07:45.520Z,20.13
2019-05-03T12:10:30.959Z,19.62
2019-05-03T12:13:01.623Z,19.26
2019-05-03T12:15:31.160Z,20.78
2019-05-03T12:18:01.739Z,22.70
2019-05-03T12:20:32.040Z,20.97
2019-05-03T12:23:01.387Z,20.00
2019-05-03T12:25:31.470Z,18.76
2019-05-03T12:28:00.778Z,19.02
2019-05-03T12:30:29.568Z,18.67
2019-05-03T12:32:58.010Z,20.45
2019-05-03T12:35:26.570Z,22.66
2019-05-03T12:37:55.518Z,24.95
2019-05-03T12:40:25.486Z,26.15
2019-05-03T12:42:55.228Z,26.51
2019-05-03T12:45:24.754Z,25.48
2019-05-03T12:47:53.350Z,25.68
2019-05-03T12:50:21.871Z,27.28
2019-05-03T12:52:50.852Z,25.36
2019-05-03T12:55:19.461Z,25.69
2019-05-03T12:57:47.901Z,23.46
2019-05-03T13:00:37.356Z,21.78
2019-05-03T13:03:07.554Z,21.58
2019-05-03T13:05:36.028Z,21.97
2019-05-03T13:08:35.235Z,21.14
2019-05-03T13:11:05.218Z,21.42
2019-05-03T13:13:35.890Z,22.89
2019-05-03T13:16:04.768Z,26.74
2019-05-03T13:18:35.121Z,27.66
2019-05-03T13:21:05.799Z,30.51
2019-05-03T13:23:35.363Z,31.87
2019-05-03T13:26:05.629Z,32.60
2019-05-03T13:28:34.564Z,34.29
2019-05-03T13:31:05.455Z,35.28
2019-05-03T13:33:34.768Z,35.54
2019-05-03T13:36:03.705Z,36.97
2019-05-03T13:38:34.705Z,36.87
2019-05-03T13:41:03.053Z,36.49
2019-05-03T13:43:31.620Z,36.93
2019-05-03T13:46:00.039Z,37.45
2019-05-03T13:48:41.691Z,37.51
2019-05-03T13:50:58.598Z,37.42
2019-05-03T13:53:27.321Z,37.11
2019-05-03T13:55:55.834Z,35.50
2019-05-03T13:58:26.420Z,35.82
2019-05-03T14:00:55.116Z,34.67
2019-05-03T14:03:23.674Z,33.70
2019-05-03T14:05:52.102Z,33.03
2019-05-03T14:08:20.570Z,33.49
2019-05-03T14:10:49.503Z,32.55
2019-05-03T14:13:18.374Z,29.44
2019-05-03T14:15:46.992Z,27.75
2019-05-03T14:18:15.647Z,26.97
2019-05-03T14:20:45.877Z,27.63
2019-05-03T14:23:14.861Z,29.65
2019-05-03T14:25:44.749Z,30.46
2019-05-03T14:28:14.565Z,32.26
2019-05-03T14:30:45.401Z,34.18
2019-05-03T14:33:18.565Z,35.00
2019-05-03T14:35:47.283Z,35.61
2019-05-03T14:38:15.660Z,36.64
2019-05-03T14:40:44.962Z,37.82
2019-05-03T14:43:15.398Z,39.38
2019-05-03T14:45:44.076Z,40.69
2019-05-03T14:48:12.669Z,40.78
2019-05-03T14:50:41.326Z,41.05
2019-05-03T14:53:09.750Z,41.23
2019-05-03T14:55:42.556Z,40.56
2019-05-03T14:58:18.746Z,40.68
2019-05-03T15:00:48.926Z,40.69
2019-05-03T15:03:21.773Z,40.56
2019-05-03T15:05:50.437Z,40.39
2019-05-03T15:08:19.265Z,39.64
2019-05-03T15:10:47.838Z,39.86
2019-05-03T15:13:16.285Z,40.49
2019-05-03T15:15:45.211Z,41.19
2019-05-03T15:18:14.964Z,39.69
2019-05-03T15:20:45.328Z,38.88
2019-05-03T15:23:14.735Z,39.01
2019-05-03T15:25:45.222Z,38.97
2019-05-03T15:28:13.970Z,38.99
2019-05-03T15:30:44.381Z,38.81
2019-05-03T15:33:23.520Z,38.76
2019-05-03T15:35:52.308Z,38.49
2019-05-03T15:38:21.334Z,39.08
2019-05-03T15:40:49.862Z,39.82
2019-05-03T15:43:36.640Z,39.51
2019-05-03T15:46:14.707Z,40.04
2019-05-03T15:48:47.229Z,40.53
2019-05-03T15:51:15.959Z,40.71
2019-05-03T15:53:44.803Z,41.14
2019-05-03T15:56:15.042Z,41.73
2019-05-03T15:58:46.422Z,41.77
2019-05-03T16:01:15.307Z,41.76
2019-05-03T16:03:44.907Z,42.22
2019-05-03T16:06:15.586Z,42.19
2019-05-03T16:08:44.621Z,42.03
2019-05-03T16:11:14.847Z,42.52
2019-05-03T16:13:44.826Z,42.51
2019-05-03T16:16:15.241Z,43.89
2019-05-03T16:18:44.801Z,44.02
2019-05-03T16:21:14.624Z,43.65
2019-05-03T16:23:46.256Z,43.65
2019-05-03T16:26:14.409Z,43.73
2019-05-03T16:28:50.296Z,43.06
2019-05-03T16:31:24.893Z,43.28
2019-05-03T16:33:55.016Z,43.63
2019-05-03T16:36:24.127Z,43.44
2019-05-03T16:38:53.105Z,43.82
2019-05-03T16:41:21.535Z,43.39
2019-05-03T16:43:50.164Z,43.10
2019-05-03T16:46:18.767Z,42.63
2019-05-03T16:48:47.342Z,43.26
2019-05-03T16:51:17.312Z,43.02
2019-05-03T16:53:45.978Z,42.32
2019-05-03T16:56:16.911Z,41.12
2019-05-03T16:58:45.261Z,41.10
2019-05-03T17:01:17.880Z,41.12
2019-05-03T17:03:47.150Z,41.03
2019-05-03T17:06:17.583Z,41.41
2019-05-03T17:08:50.575Z,41.62
2019-05-03T17:11:24.259Z,41.78
2019-05-03T17:13:52.802Z,42.93
2019-05-03T17:16:21.446Z,42.81
2019-05-03T17:18:49.993Z,42.85
2019-05-03T17:21:18.751Z,44.04
2019-05-03T17:23:47.310Z,43.56
2019-05-03T17:26:17.526Z,44.05
2019-05-03T17:28:45.961Z,44.96
2019-05-03T17:31:14.500Z,45.49
2019-05-03T17:33:51.515Z,45.31
2019-05-03T17:36:15.390Z,45.87
2019-05-03T17:38:44.448Z,45.40
2019-05-03T17:41:30.746Z,45.42
2019-05-03T17:44:04.972Z,45.80
2019-05-03T17:46:34.742Z,45.74
2019-05-03T17:49:05.234Z,45.83
2019-05-03T17:51:55.455Z,46.21
2019-05-03T17:54:25.817Z,46.21
2019-05-03T17:56:55.977Z,47.38
2019-05-03T17:59:26.233Z,47.66
2019-05-03T18:02:12.583Z,47.91
2019-05-03T18:04:51.988Z,48.13
2019-05-03T18:07:24.878Z,48.05
2019-05-03T18:09:55.343Z,48.34
2019-05-03T18:12:24.387Z,48.26
2019-05-03T18:14:53.202Z,48.30
2019-05-03T18:17:22.098Z,48.52
2019-05-03T18:19:50.699Z,48.89
2019-05-03T18:22:19.264Z,49.34
2019-05-03T18:24:47.945Z,49.11
2019-05-03T18:27:16.468Z,49.06
2019-05-03T18:29:45.206Z,49.07
2019-05-03T18:32:14.746Z,48.96
2019-05-03T18:34:45.224Z,48.91
2019-05-03T18:37:15.261Z,48.64
2019-05-03T18:39:45.254Z,48.73
2019-05-03T18:42:15.816Z,47.75
2019-05-03T18:44:48.995Z,47.88
2019-05-03T18:47:19.143Z,47.66
2019-05-03T18:49:47.592Z,46.96
2019-05-03T18:52:16.135Z,46.79
2019-05-03T18:54:44.773Z,46.76
2019-05-03T18:57:15.509Z,46.75
2019-05-03T18:59:44.920Z,46.61
2019-05-03T19:02:14.918Z,46.19
2019-05-03T19:04:45.359Z,46.46
2019-05-03T19:07:18.439Z,46.72
2019-05-03T19:09:52.029Z,46.52
2019-05-03T19:12:26.433Z,46.60
2019-05-03T19:14:57.970Z,46.73
2019-05-03T19:17:28.309Z,46.85
2019-05-03T19:19:58.310Z,47.19
2019-05-03T19:22:27.065Z,47.15
2019-05-03T19:24:55.693Z,47.08
2019-05-03T19:27:25.155Z,47.14
2019-05-03T19:29:55.402Z,47.39
2019-05-03T19:32:25.566Z,47.87
2019-05-03T19:34:54.936Z,47.79
2019-05-03T19:37:25.222Z,48.19
2019-05-03T19:39:55.255Z,48.15
2019-05-03T19:42:24.813Z,48.39
2019-05-03T19:44:55.305Z,48.49
2019-05-03T19:47:25.196Z,48.86
2019-05-03T19:49:54.685Z,49.02
2019-05-03T19:52:28.172Z,49.55
2019-05-03T19:54:56.622Z,49.74
2019-05-03T19:57:36.217Z,49.91
2019-05-03T20:00:07.231Z,50.26
2019-05-03T20:02:37.310Z,50.79
2019-05-03T20:05:08.596Z,50.86
2019-05-03T20:07:41.555Z,50.72
2019-05-03T20:10:10.603Z,51.00
2019-05-03T20:12:39.236Z,51.34
2019-05-03T20:15:07.912Z,51.74
2019-05-03T20:17:37.245Z,51.83
2019-05-03T20:20:08.024Z,52.05
2019-05-03T20:22:36.568Z,52.08
2019-05-03T20:25:05.930Z,52.26
2019-05-03T20:27:35.239Z,52.56
2019-05-03T20:30:07.590Z,52.39
2019-05-03T20:32:36.013Z,52.36
2019-05-03T20:35:16.609Z,50.73
2019-05-03T20:37:37.281Z,50.15
2019-05-03T20:40:06.793Z,50.12
2019-05-03T20:42:46.406Z,49.70
2019-05-03T20:45:17.198Z,49.98
2019-05-03T20:47:49.892Z,49.70
2019-05-03T20:50:18.385Z,49.94
2019-05-03T20:52:47.220Z,50.38
2019-05-03T20:55:15.868Z,50.39
2019-05-03T20:57:44.557Z,50.80
2019-05-03T21:00:14.941Z,51.39
2019-05-03T21:02:51.568Z,51.78
2019-05-03T21:05:24.660Z,51.54
2019-05-03T21:07:45.481Z,51.88
2019-05-03T21:10:15.966Z,51.89
2019-05-03T21:12:44.893Z,52.09
2019-05-03T21:15:24.712Z,51.93
2019-05-03T21:18:15.102Z,52.04
2019-05-03T21:20:45.128Z,52.51
2019-05-03T21:23:18.020Z,53.02
2019-05-03T21:26:12.488Z,53.43
2019-05-03T21:28:34.580Z,53.50
2019-05-03T21:31:05.423Z,53.77
2019-05-03T21:33:35.512Z,53.91
2019-05-03T21:36:04.728Z,54.30
2019-05-03T21:38:35.438Z,54.31
2019-05-03T21:41:05.171Z,54.43
2019-05-03T21:43:34.778Z,54.40
2019-05-03T21:46:15.142Z,54.53
2019-05-03T21:48:57.011Z,54.96
2019-05-03T21:51:25.516Z,55.03
2019-05-03T21:53:54.322Z,55.21
2019-05-03T21:56:24.983Z,55.19
2019-05-03T21:58:55.263Z,55.31
2019-05-03T22:01:25.900Z,55.48
2019-05-03T22:03:54.731Z,56.14
2019-05-03T22:06:24.659Z,56.85
2019-05-03T22:08:55.280Z,57.52
2019-05-03T22:11:25.142Z,58.38
2019-05-03T22:13:57.190Z,58.20
2019-05-03T22:16:39.404Z,58.65
2019-05-03T22:19:07.815Z,59.35
2019-05-03T22:21:55.154Z,59.12
2019-05-03T22:24:42.138Z,59.48
2019-05-03T22:27:12.484Z,59.70
2019-05-03T22:29:41.094Z,60.09
2019-05-03T22:32:09.725Z,59.80
2019-05-03T22:34:38.516Z,60.35
2019-05-03T22:37:07.378Z,60.26
2019-05-03T22:39:35.795Z,60.85
2019-05-03T22:42:04.661Z,60.84
2019-05-03T22:44:35.641Z,60.92
2019-05-03T22:47:05.524Z,60.55
2019-05-03T22:49:34.595Z,60.73
2019-05-03T22:52:04.933Z,60.87
2019-05-03T22:54:34.605Z,60.86
2019-05-03T22:57:04.822Z,61.21
2019-05-03T22:59:34.454Z,61.70
2019-05-03T23:02:02.984Z,62.16
2019-05-03T23:04:31.426Z,62.55
2019-05-03T23:06:59.809Z,63.45
2019-05-03T23:09:28.269Z,63.88
2019-05-03T23:11:56.650Z,63.43
2019-05-03T23:14:25.729Z,63.50
2019-05-03T23:16:54.301Z,64.45
2019-05-03T23:19:22.768Z,64.55
2019-05-03T23:21:54.471Z,65.37
2019-05-03T23:24:24.717Z,64.41
2019-05-03T23:26:53.414Z,64.90
2019-05-03T23:29:21.871Z,65.55
2019-05-03T23:31:50.714Z,65.89
2019-05-03T23:34:19.096Z,65.91
2019-05-03T23:36:47.542Z,65.90
2019-05-03T23:39:16.001Z,65.92
2019-05-03T23:41:44.499Z,65.63
2019-05-03T23:44:15.048Z,66.11
2019-05-03T23:46:50.289Z,66.40
2019-05-03T23:49:18.662Z,66.41
2019-05-03T23:51:48.680Z,66.43
2019-05-03T23:54:17.512Z,66.48
2019-05-03T23:56:46.045Z,66.12
2019-05-03T23:59:15.024Z,66.30
